Time;durP1;ratioP1;P1;durP2;ratioP2;P2;SDS_P1;SDS_P2;PMS_P1;PMS_P2;Temp;Humidity;BMP_temperature;BMP_pressure;BME280_temperature;BME280_humidity;BME280_pressure;Samples;Min_cycle;Max_cycle;Signal;HPM_P1;HPM_P2
2022/08/01 00:04:35;;;;;;;;;;;;;;;;;;10543019;28;19931;-68
2022/08/01 00:09:37;;;;;;;;;;;;;;;;;;10542086;28;19947;-67
2022/08/01 00:14:39;;;;;;;;;;;;;;;;;;10542454;28;19932;-67
2022/08/01 00:19:41;;;;;;;;;;;;;;;;;;10541373;28;20290;-66
2022/08/01 00:24:43;;;;;;;;;;;;;;;;;;10540913;28;19932;-66
2022/08/01 00:29:45;;;;;;;;;;;;;;;;;;10541581;28;19924;-66
2022/08/01 00:35:07;;;;;;;;;;;;;;;;;;10457998;28;19924;-67
2022/08/01 00:40:09;;;;;;;;;;;;;;;;;;10487534;28;19947;-66
2022/08/01 00:45:11;;;;;;;;;;;;;;;;;;10541232;28;19924;-66
2022/08/01 00:50:13;;;;;;;;;;;;;;;;;;10540208;28;19927;-67
2022/08/01 00:55:15;;;;;;;;;;;;;;;;;;10541073;28;19924;-66
2022/08/01 01:00:17;;;;;;;;;;;;;;;;;;10540778;28;19931;-66
2022/08/01 01:05:20;;;;;;;;;;;;;;;;;;10540848;28;19930;-67
2022/08/01 01:10:22;;;;;;;;;;;;;;;;;;10540416;28;19931;-66
2022/08/01 01:15:24;;;;;;;;;;;;;;;;;;10540609;28;19928;-66
2022/08/01 01:20:26;;;;;;;;;;;;;;;;;;10540466;28;19932;-66
2022/08/01 01:25:28;;;;;;;;;;;;;;;;;;10539532;28;20394;-66
2022/08/01 01:30:30;;;;;;;;;;;;;;;;;;10539521;28;19928;-66
2022/08/01 01:35:32;;;;;;;;;;;;;;;;;;10540079;28;19924;-66
2022/08/01 01:40:34;;;;;;;;;;;;;;;;;;10546710;28;19928;-66
2022/08/01 01:45:36;;;;;;;;;;;;;;;;;;10548468;28;19925;-66
2022/08/01 01:50:38;;;;;;;;;;;;;;;;;;10547454;28;20291;-66
2022/08/01 01:55:40;;;;;;;;;;;;;;;;;;10548026;28;19931;-66
2022/08/01 02:00:50;;;;;;;;;;;;;;;;;;10547655;28;19924;-66
2022/08/01 02:05:52;;;;;;;;;;;;;;;;;;10529719;28;19930;-66
2022/08/01 02:16:15;;;;;;;;;;;;;;;;;;10547221;28;19931;-66
2022/08/01 02:21:17;;;;;;;;;;;;;;;;;;10546345;28;20363;-66
2022/08/01 02:26:19;;;;;;;;;;;;;;;;;;10544555;28;19924;-66
2022/08/01 02:31:21;;;;;;;;;;;;;;;;;;10545478;28;19930;-66
2022/08/01 02:36:24;;;;;;;;;;;;;;;;;;10546431;28;19924;-66
2022/08/01 02:41:32;;;;;;;;;;;;;;;;;;10546129;28;19938;-66
2022/08/01 02:46:34;;;;;;;;;;;;;;;;;;10545481;28;19928;-66
2022/08/01 02:51:37;;;;;;;;;;;;;;;;;;10545843;28;19959;-66
2022/08/01 02:56:40;;;;;;;;;;;;;;;;;;10544847;28;20398;-66
2022/08/01 03:01:43;;;;;;;;;;;;;;;;;;10545136;28;19924;-66
2022/08/01 03:06:45;;;;;;;;;;;;;;;;;;10544645;28;20387;-66
2022/08/01 03:11:47;;;;;;;;;;;;;;;;;;10545132;28;19931;-66
2022/08/01 03:16:49;;;;;;;;;;;;;;;;;;10543057;28;20283;-66
2022/08/01 03:21:51;;;;;;;;;;;;;;;;;;10543936;28;19930;-66
2022/08/01 03:26:53;;;;;;;;;;;;;;;;;;10525751;28;20294;-66
2022/08/01 03:31:56;;;;;;;;;;;;;;;;;;10543506;28;19931;-67
2022/08/01 03:36:58;;;;;;;;;;;;;;;;;;10543992;28;19931;-66
2022/08/01 03:42:00;;;;;;;;;;;;;;;;;;10544017;28;19924;-66
2022/08/01 03:47:02;;;;;;;;;;;;;;;;;;10559339;22;19947;-66
2022/08/01 03:52:04;;;;;;;;;;;;;;;;;;10585047;28;20278;-66
2022/08/01 03:57:06;;;;;;;;;;;;;;;;;;10584724;28;20023;-66
2022/08/01 04:02:09;;;;;;;;;;;;;;;;;;10584264;28;19923;-66
2022/08/01 04:07:11;;;;;;;;;;;;;;;;;;10585062;28;19931;-66
2022/08/01 04:12:13;;;;;;;;;;;;;;;;;;10583829;28;19947;-66
2022/08/01 04:17:15;;;;;;;;;;;;;;;;;;10584070;28;19931;-66
2022/08/01 04:22:17;;;;;;;;;;;;;;;;;;10584461;28;19923;-67
2022/08/01 04:27:19;;;;;;;;;;;;;;;;;;10583325;28;19924;-67
2022/08/01 04:32:41;;;;;;;;;;;;;;;;;;10582921;28;19928;-66
2022/08/01 04:37:43;;;;;;;;;;;;;;;;;;10583934;28;19924;-66
2022/08/01 04:42:45;;;;;;;;;;;;;;;;;;10583684;28;19924;-66
2022/08/01 04:47:47;;;;;;;;;;;;;;;;;;10582346;28;19924;-66
2022/08/01 04:52:51;;;;;;;;;;;;;;;;;;10582898;28;19934;-66
2022/08/01 04:57:53;;;;;;;;;;;;;;;;;;10582578;28;19923;-66
2022/08/01 05:02:55;;;;;;;;;;;;;;;;;;10581846;28;19924;-66
2022/08/01 05:07:57;;;;;;;;;;;;;;;;;;10582896;28;19938;-66
2022/08/01 05:12:59;;;;;;;;;;;;;;;;;;10581538;28;19924;-66
2022/08/01 05:18:01;;;;;;;;;;;;;;;;;;10582047;28;20363;-66
2022/08/01 05:23:03;;;;;;;;;;;;;;;;;;10582575;28;19924;-66
2022/08/01 05:28:05;;;;;;;;;;;;;;;;;;10582051;28;19924;-66
2022/08/01 05:33:07;;;;;;;;;;;;;;;;;;10582308;28;19924;-66
2022/08/01 05:38:09;;;;;;;;;;;;;;;;;;10582404;28;19924;-66
2022/08/01 05:43:14;;;;;;;;;;;;;;;;;;10581978;28;19924;-66
2022/08/01 05:48:16;;;;;;;;;;;;;;;;;;10581424;28;19928;-66
2022/08/01 05:53:18;;;;;;;;;;;;;;;;;;10581341;28;20005;-66
2022/08/01 05:58:20;;;;;;;;;;;;;;;;;;10580665;28;20275;-66
2022/08/01 06:03:22;;;;;;;;;;;;;;;;;;10581595;28;19924;-66
2022/08/01 06:08:24;;;;;;;;;;;;;;;;;;10581481;28;19924;-67
2022/08/01 06:13:26;;;;;;;;;;;;;;;;;;10581547;28;19931;-66
2022/08/01 06:18:28;;;;;;;;;;;;;;;;;;10573033;28;19930;-66
2022/08/01 06:23:31;;;;;;;;;;;;;;;;;;10540147;28;19931;-66
2022/08/01 06:28:34;;;;;;;;;;;;;;;;;;10568217;28;19969;-66
2022/08/01 06:33:36;;;;;;;;;;;;;;;;;;10570784;28;20146;-66
2022/08/01 06:38:38;;;;;;;;;;;;;;;;;;10588714;28;19931;-66
2022/08/01 06:43:40;;;;;;;;;;;;;;;;;;10587348;28;20401;-66
2022/08/01 06:48:42;;;;;;;;;;;;;;;;;;10588208;28;19924;-67
2022/08/01 06:53:44;;;;;;;;;;;;;;;;;;10587076;28;20477;-67
2022/08/01 06:58:46;;;;;;;;;;;;;;;;;;10587345;28;19927;-67
2022/08/01 07:03:48;;;;;;;;;;;;;;;;;;10587826;28;19923;-67
2022/08/01 07:08:55;;;;;;;;;;;;;;;;;;10587289;28;19923;-68
2022/08/01 07:13:58;;;;;;;;;;;;;;;;;;10587185;28;19923;-67
2022/08/01 07:19:01;;;;;;;;;;;;;;;;;;10569057;28;19930;-67
2022/08/01 07:24:03;;;;;;;;;;;;;;;;;;10585803;28;20378;-66
2022/08/01 07:29:14;;;;;;;;;;;;;;;;;;10584706;28;19927;-66
2022/08/01 07:34:16;;;;;;;;;;;;;;;;;;10585504;28;19935;-67
2022/08/01 07:39:18;;;;;;;;;;;;;;;;;;10585639;28;19931;-66
2022/08/01 07:44:20;;;;;;;;;;;;;;;;;;10585234;28;20400;-66
2022/08/01 07:49:22;;;;;;;;;;;;;;;;;;10583542;28;19931;-66
2022/08/01 07:54:27;;;;;;;;;;;;;;;;;;10584620;28;19924;-67
2022/08/01 07:59:34;;;;;;;;;;;;;;;;;;10584826;28;19973;-67
2022/08/01 08:04:36;;;;;;;;;;;;;;;;;;10584558;28;20286;-66
2022/08/01 08:09:39;;;;;;;;;;;;;;;;;;10582677;28;19927;-66
2022/08/01 08:14:41;;;;;;;;;;;;;;;;;;10584624;28;19924;-67
2022/08/01 08:19:44;;;;;;;;;;;;;;;;;;10584051;28;19931;-66
2022/08/01 08:24:46;;;;;;;;;;;;;;;;;;10578307;28;20020;-66
2022/08/01 08:29:48;;;;;;;;;;;;;;;;;;10583563;28;19930;-66
2022/08/01 08:34:50;;;;;;;;;;;;;;;;;;10583328;28;19928;-66
2022/08/01 08:39:52;;;;;;;;;;;;;;;;;;10583850;28;19930;-66
2022/08/01 08:44:55;;;;;;;;;;;;;;;;;;10582727;28;20367;-66
2022/08/01 08:49:57;;;;;;;;;;;;;;;;;;10582780;28;19928;-66
2022/08/01 08:54:59;;;;;;;;;;;;;;;;;;10582636;28;20282;-67
2022/08/01 09:00:01;;;;;;;;;;;;;;;;;;10582453;28;20385;-67
2022/08/01 09:05:03;;;;;;;;;;;;;;;;;;10582996;28;19923;-67
2022/08/01 09:10:05;;;;;;;;;;;;;;;;;;10582909;28;19930;-67
2022/08/01 09:15:07;;;;;;;;;;;;;;;;;;10582075;28;20329;-67
2022/08/01 09:20:09;;;;;;;;;;;;;;;;;;10582739;28;19931;-67
2022/08/01 09:25:11;;;;;;;;;;;;;;;;;;10582648;28;19923;-67
2022/08/01 09:30:13;;;;;;;;;;;;;;;;;;10581893;28;19946;-67
2022/08/01 09:35:20;;;;;;;;;;;;;;;;;;10582342;28;19931;-67
2022/08/01 09:40:22;;;;;;;;;;;;;;;;;;10582293;28;19924;-67
2022/08/01 09:45:24;;;;;;;;;;;;;;;;;;10581413;28;20294;-67
2022/08/01 09:50:26;;;;;;;;;;;;;;;;;;10582140;28;19924;-67
2022/08/01 09:55:28;;;;;;;;;;;;;;;;;;10581931;28;19924;-67
2022/08/01 10:00:30;;;;;;;;;;;;;;;;;;10586331;28;19923;-67
2022/08/01 10:05:47;;;;;;;;;;;;;;;;;;10590055;28;19923;-67
2022/08/01 10:10:51;;;;;;;;;;;;;;;;;;10589896;28;20006;-67
2022/08/01 10:15:53;;;;;;;;;;;;;;;;;;10589613;28;19924;-67
2022/08/01 10:20:55;;;;;;;;;;;;;;;;;;10570746;28;20415;-67
2022/08/01 10:25:58;;;;;;;;;;;;;;;;;;10589238;28;19998;-67
2022/08/01 10:31:01;;;;;;;;;;;;;;;;;;10589040;28;19924;-67
2022/08/01 10:36:03;;;;;;;;;;;;;;;;;;10588760;28;19931;-67
2022/08/01 10:41:05;;;;;;;;;;;;;;;;;;10588692;28;19924;-67
2022/08/01 10:46:09;;;;;;;;;;;;;;;;;;10587603;28;20358;-67
2022/08/01 10:51:11;;;;;;;;;;;;;;;;;;10588308;28;19931;-68
2022/08/01 10:56:20;;;;;;;;;;;;;;;;;;10586288;28;19923;-68
2022/08/01 11:01:22;;;;;;;;;;;;;;;;;;10586023;28;20279;-68
2022/08/01 11:06:25;;;;;;;;;;;;;;;;;;10587252;28;19930;-67
2022/08/01 11:11:27;;;;;;;;;;;;;;;;;;10585515;28;19928;-67
2022/08/01 11:16:29;;;;;;;;;;;;;;;;;;10585595;28;20270;-67
2022/08/01 11:21:31;;;;;;;;;;;;;;;;;;10586069;28;20277;-67
2022/08/01 11:26:53;;;;;;;;;;;;;;;;;;10583563;28;20278;-67
2022/08/01 11:31:57;;;;;;;;;;;;;;;;;;10567788;28;20400;-67
2022/08/01 11:36:59;;;;;;;;;;;;;;;;;;10585377;28;19923;-67
2022/08/01 11:42:01;;;;;;;;;;;;;;;;;;10584914;28;19924;-67
2022/08/01 11:47:03;;;;;;;;;;;;;;;;;;10583147;28;19923;-67
2022/08/01 11:52:10;;;;;;;;;;;;;;;;;;10585817;28;19973;-67
2022/08/01 11:57:12;;;;;;;;;;;;;;;;;;10584707;28;19946;-67
2022/08/01 12:02:14;;;;;;;;;;;;;;;;;;10584385;28;19954;-67
2022/08/01 12:07:16;;;;;;;;;;;;;;;;;;10566519;28;19959;-67
2022/08/01 12:12:18;;;;;;;;;;;;;;;;;;10582926;28;20278;-67
2022/08/01 12:17:20;;;;;;;;;;;;;;;;;;10584472;28;19931;-67
2022/08/01 12:22:22;;;;;;;;;;;;;;;;;;10583385;28;19923;-67
2022/08/01 12:27:25;;;;;;;;;;;;;;;;;;10583644;28;19923;-68
2022/08/01 12:32:27;;;;;;;;;;;;;;;;;;10563839;28;19931;-67
2022/08/01 12:37:36;;;;;;;;;;;;;;;;;;10582558;28;19979;-67
2022/08/01 12:42:39;;;;;;;;;;;;;;;;;;10583437;28;19930;-68
2022/08/01 12:47:41;;;;;;;;;;;;;;;;;;10581047;28;19931;-68
2022/08/01 12:52:43;;;;;;;;;;;;;;;;;;10581623;28;19930;-68
2022/08/01 12:57:49;;;;;;;;;;;;;;;;;;10583001;28;19924;-67
2022/08/01 13:02:51;;;;;;;;;;;;;;;;;;10582639;28;19967;-68
2022/08/01 13:07:54;;;;;;;;;;;;;;;;;;10580713;28;19931;-68
2022/08/01 13:12:56;;;;;;;;;;;;;;;;;;10581797;28;19923;-67
2022/08/01 13:17:58;;;;;;;;;;;;;;;;;;10582325;28;19957;-67
2022/08/01 13:23:00;;;;;;;;;;;;;;;;;;10579754;28;20320;-68
2022/08/01 13:28:02;;;;;;;;;;;;;;;;;;10582188;28;19924;-67
2022/08/01 13:33:04;;;;;;;;;;;;;;;;;;10581970;28;19924;-67
2022/08/01 13:38:06;;;;;;;;;;;;;;;;;;10589573;28;19923;-68
2022/08/01 13:43:08;;;;;;;;;;;;;;;;;;10572267;28;20290;-68
2022/08/01 13:48:10;;;;;;;;;;;;;;;;;;10586951;28;19927;-67
2022/08/01 13:53:20;;;;;;;;;;;;;;;;;;10590173;28;19977;-68
2022/08/01 13:58:22;;;;;;;;;;;;;;;;;;10589257;28;20382;-67
2022/08/01 14:03:24;;;;;;;;;;;;;;;;;;10588467;28;20283;-68
2022/08/01 14:08:34;;;;;;;;;;;;;;;;;;10590121;28;20014;-68
2022/08/01 14:13:40;;;;;;;;;;;;;;;;;;10587259;28;19924;-67
2022/08/01 14:18:46;;;;;;;;;;;;;;;;;;10578559;28;20041;-68
2022/08/01 14:23:48;;;;;;;;;;;;;;;;;;10575761;28;19938;-68
2022/08/01 14:28:50;;;;;;;;;;;;;;;;;;10589072;28;19924;-68
2022/08/01 14:33:52;;;;;;;;;;;;;;;;;;10558365;28;19924;-68
2022/08/01 14:38:54;;;;;;;;;;;;;;;;;;10588823;28;19924;-68
2022/08/01 14:43:56;;;;;;;;;;;;;;;;;;10587385;28;19924;-67
2022/08/01 14:48:58;;;;;;;;;;;;;;;;;;10587789;28;20378;-68
2022/08/01 14:54:00;;;;;;;;;;;;;;;;;;10585952;28;19980;-68
2022/08/01 14:59:02;;;;;;;;;;;;;;;;;;10580648;28;19935;-68
2022/08/01 15:04:05;;;;;;;;;;;;;;;;;;10576945;28;20415;-68
2022/08/01 15:09:07;;;;;;;;;;;;;;;;;;10579667;28;20370;-67
2022/08/01 15:19:29;;;;;;;;;;;;;;;;;;10579296;28;19935;-68
2022/08/01 15:24:31;;;;;;;;;;;;;;;;;;10577612;28;19934;-68
2022/08/01 15:29:34;;;;;;;;;;;;;;;;;;10579670;28;19935;-68
2022/08/01 15:34:36;;;;;;;;;;;;;;;;;;10560207;28;19927;-68
2022/08/01 15:39:38;;;;;;;;;;;;;;;;;;10578079;28;19939;-68
2022/08/01 15:44:40;;;;;;;;;;;;;;;;;;10574590;28;19928;-67
2022/08/01 15:49:42;;;;;;;;;;;;;;;;;;10574295;28;19927;-67
2022/08/01 15:54:44;;;;;;;;;;;;;;;;;;10577208;28;19924;-68
2022/08/01 15:59:46;;;;;;;;;;;;;;;;;;10583881;22;19935;-67
2022/08/01 16:04:48;;;;;;;;;;;;;;;;;;10578056;28;19935;-68
2022/08/01 16:09:50;;;;;;;;;;;;;;;;;;10550818;28;19928;-68
2022/08/01 16:14:52;;;;;;;;;;;;;;;;;;10535453;28;19928;-68
2022/08/01 16:19:55;;;;;;;;;;;;;;;;;;10534920;28;20398;-68
2022/08/01 16:24:57;;;;;;;;;;;;;;;;;;10535319;28;19943;-68
2022/08/01 16:30:01;;;;;;;;;;;;;;;;;;10534898;28;19924;-68
2022/08/01 16:35:03;;;;;;;;;;;;;;;;;;10534194;28;19935;-68
2022/08/01 16:40:05;;;;;;;;;;;;;;;;;;10533645;28;20286;-68
2022/08/01 16:45:07;;;;;;;;;;;;;;;;;;10533978;28;20370;-68
2022/08/01 16:50:14;;;;;;;;;;;;;;;;;;10534433;28;19932;-68
2022/08/01 16:55:16;;;;;;;;;;;;;;;;;;10532754;28;19928;-68
2022/08/01 17:00:19;;;;;;;;;;;;;;;;;;10567756;28;19947;-68
2022/08/01 17:05:22;;;;;;;;;;;;;;;;;;10540960;28;19924;-68
2022/08/01 17:10:24;;;;;;;;;;;;;;;;;;10540737;28;19924;-68
2022/08/01 17:15:26;;;;;;;;;;;;;;;;;;10572647;28;19924;-68
2022/08/01 17:20:31;;;;;;;;;;;;;;;;;;10581682;28;20441;-68
2022/08/01 17:25:33;;;;;;;;;;;;;;;;;;10582503;28;19931;-68
2022/08/01 17:30:37;;;;;;;;;;;;;;;;;;10559108;28;19931;-68
2022/08/01 17:35:39;;;;;;;;;;;;;;;;;;10540191;28;19938;-68
2022/08/01 17:40:41;;;;;;;;;;;;;;;;;;10521918;28;19935;-68
2022/08/01 17:45:44;;;;;;;;;;;;;;;;;;10539039;28;20410;-68
2022/08/01 17:50:52;;;;;;;;;;;;;;;;;;10545816;28;19985;-68
2022/08/01 17:55:57;;;;;;;;;;;;;;;;;;10562661;28;19924;-68
2022/08/01 18:00:59;;;;;;;;;;;;;;;;;;10579883;28;20290;-68
2022/08/01 18:06:01;;;;;;;;;;;;;;;;;;10538801;28;19924;-68
2022/08/01 18:11:03;;;;;;;;;;;;;;;;;;10566330;28;19924;-68
2022/08/01 18:16:07;;;;;;;;;;;;;;;;;;10546143;28;19924;-68
2022/08/01 18:21:09;;;;;;;;;;;;;;;;;;10543155;28;19928;-68
2022/08/01 18:26:11;;;;;;;;;;;;;;;;;;10547168;28;19924;-68
2022/08/01 18:31:16;;;;;;;;;;;;;;;;;;10546245;28;19946;-68
2022/08/01 18:36:18;;;;;;;;;;;;;;;;;;10545544;28;20014;-68
2022/08/01 18:41:33;;;;;;;;;;;;;;;;;;10545273;28;20413;-67
2022/08/01 18:46:35;;;;;;;;;;;;;;;;;;10546156;28;19924;-68
2022/08/01 18:51:37;;;;;;;;;;;;;;;;;;10545887;28;19925;-68
2022/08/01 18:56:45;;;;;;;;;;;;;;;;;;10545088;28;19924;-68
2022/08/01 19:01:47;;;;;;;;;;;;;;;;;;10545065;28;19924;-68
2022/08/01 19:06:49;;;;;;;;;;;;;;;;;;10545468;28;19928;-68
2022/08/01 19:11:51;;;;;;;;;;;;;;;;;;10545145;28;19924;-68
2022/08/01 19:16:55;;;;;;;;;;;;;;;;;;10544788;28;19924;-68
2022/08/01 19:21:57;;;;;;;;;;;;;;;;;;10544534;28;19924;-68
2022/08/01 19:27:00;;;;;;;;;;;;;;;;;;10542577;28;20286;-68
2022/08/01 19:32:09;;;;;;;;;;;;;;;;;;10543138;28;20019;-68
2022/08/01 19:37:13;;;;;;;;;;;;;;;;;;10542620;28;21133;-67
2022/08/01 19:42:15;;;;;;;;;;;;;;;;;;10578903;28;19930;-68
2022/08/01 19:47:17;;;;;;;;;;;;;;;;;;10543918;28;19931;-67
2022/08/01 19:52:19;;;;;;;;;;;;;;;;;;10543732;28;19935;-67
2022/08/01 19:57:21;;;;;;;;;;;;;;;;;;10544605;28;19931;-67
2022/08/01 20:02:23;;;;;;;;;;;;;;;;;;10557726;28;19930;-67
2022/08/01 20:07:25;;;;;;;;;;;;;;;;;;10585043;28;20282;-67
2022/08/01 20:12:27;;;;;;;;;;;;;;;;;;10551043;28;19990;-67
2022/08/01 20:17:29;;;;;;;;;;;;;;;;;;10543735;28;19928;-67
2022/08/01 20:22:32;;;;;;;;;;;;;;;;;;10551174;28;20374;-67
2022/08/01 20:27:34;;;;;;;;;;;;;;;;;;10584465;28;19927;-67
2022/08/01 20:32:36;;;;;;;;;;;;;;;;;;10584029;28;19947;-67
2022/08/01 20:37:39;;;;;;;;;;;;;;;;;;10581331;28;20290;-68
2022/08/01 20:43:01;;;;;;;;;;;;;;;;;;10583562;28;19927;-67
2022/08/01 20:48:03;;;;;;;;;;;;;;;;;;10583027;28;20286;-67
2022/08/01 20:53:05;;;;;;;;;;;;;;;;;;10556628;28;19924;-67
2022/08/01 20:58:07;;;;;;;;;;;;;;;;;;10540197;28;19924;-67
2022/08/01 21:03:10;;;;;;;;;;;;;;;;;;10506409;28;19941;-67
2022/08/01 21:08:12;;;;;;;;;;;;;;;;;;10540632;28;19924;-68
2022/08/01 21:13:14;;;;;;;;;;;;;;;;;;10540762;28;19924;-68
2022/08/01 21:18:21;;;;;;;;;;;;;;;;;;10533252;28;19924;-67
2022/08/01 21:23:23;;;;;;;;;;;;;;;;;;10538335;28;19924;-67
2022/08/01 21:28:25;;;;;;;;;;;;;;;;;;10539733;28;19947;-67
2022/08/01 21:33:27;;;;;;;;;;;;;;;;;;10539550;28;19924;-67
2022/08/01 21:38:29;;;;;;;;;;;;;;;;;;10538550;28;19928;-68
2022/08/01 21:43:31;;;;;;;;;;;;;;;;;;10539540;28;19924;-67
2022/08/01 21:48:34;;;;;;;;;;;;;;;;;;10534064;28;19974;-67
2022/08/01 21:53:36;;;;;;;;;;;;;;;;;;10497726;28;20268;-67
2022/08/01 21:58:42;;;;;;;;;;;;;;;;;;10509910;28;19932;-67
2022/08/01 22:03:45;;;;;;;;;;;;;;;;;;10548067;28;19928;-67
2022/08/01 22:08:47;;;;;;;;;;;;;;;;;;10538868;28;19924;-67
2022/08/01 22:13:49;;;;;;;;;;;;;;;;;;10526035;28;19928;-68
2022/08/01 22:18:51;;;;;;;;;;;;;;;;;;10547057;28;19924;-67
2022/08/01 22:23:53;;;;;;;;;;;;;;;;;;10547244;28;19925;-67
2022/08/01 22:28:55;;;;;;;;;;;;;;;;;;10524779;28;19987;-67
2022/08/01 22:33:58;;;;;;;;;;;;;;;;;;10504497;28;19924;-67
2022/08/01 22:39:00;;;;;;;;;;;;;;;;;;10504009;28;19929;-67
2022/08/01 22:44:02;;;;;;;;;;;;;;;;;;10504519;28;19967;-67
2022/08/01 22:49:04;;;;;;;;;;;;;;;;;;10504428;28;19929;-67
2022/08/01 22:54:10;;;;;;;;;;;;;;;;;;10505247;28;19967;-67
2022/08/01 22:59:12;;;;;;;;;;;;;;;;;;10527040;28;19924;-67
2022/08/01 23:04:14;;;;;;;;;;;;;;;;;;10545747;28;19959;-67
2022/08/01 23:09:16;;;;;;;;;;;;;;;;;;10545040;28;19931;-67
2022/08/01 23:14:19;;;;;;;;;;;;;;;;;;10543210;28;19924;-67
2022/08/01 23:19:21;;;;;;;;;;;;;;;;;;10544377;28;19946;-67
2022/08/01 23:24:23;;;;;;;;;;;;;;;;;;10544105;28;19931;-67
2022/08/01 23:29:26;;;;;;;;;;;;;;;;;;10543847;28;19925;-67
2022/08/01 23:34:28;;;;;;;;;;;;;;;;;;10538427;28;19936;-67
2022/08/01 23:39:30;;;;;;;;;;;;;;;;;;10501731;28;19925;-67
2022/08/01 23:44:32;;;;;;;;;;;;;;;;;;10501562;28;20286;-67
2022/08/01 23:49:35;;;;;;;;;;;;;;;;;;10510499;28;19932;-67
2022/08/01 23:54:53;;;;;;;;;;;;;;;;;;10523842;28;20379;-67
2022/08/01 23:59:55;;;;;;;;;;;;;;;;;;10501065;28;19931;-67
